sensor_id;sensor_type;location;lat;lon;timestamp;temperature;humidity
37478;DHT22;23334;54.316;10.182;2022-08-25T00:01:17;16.80;99.90
37478;DHT22;23334;54.316;10.182;2022-08-25T00:03:44;16.90;99.90
37478;DHT22;23334;54.316;10.182;2022-08-25T00:06:10;17.30;99.90
37478;DHT22;23334;54.316;10.182;2022-08-25T00:08:36;16.80;99.90
37478;DHT22;23334;54.316;10.182;2022-08-25T00:11:04;16.80;99.90
37478;DHT22;23334;54.316;10.182;2022-08-25T00:13:31;17.00;99.90
37478;DHT22;23334;54.316;10.182;2022-08-25T00:15:56;16.80;99.90
37478;DHT22;23334;54.316;10.182;2022-08-25T00:18:22;16.80;99.90
37478;DHT22;23334;54.316;10.182;2022-08-25T00:20:49;16.90;99.90
37478;DHT22;23334;54.316;10.182;2022-08-25T00:23:14;16.70;99.90
37478;DHT22;23334;54.316;10.182;2022-08-25T00:25:40;16.70;99.90
37478;DHT22;23334;54.316;10.182;2022-08-25T00:28:05;16.50;99.90
37478;DHT22;23334;54.316;10.182;2022-08-25T00:30:31;16.60;99.90
37478;DHT22;23334;54.316;10.182;2022-08-25T00:32:56;16.60;99.90
37478;DHT22;23334;54.316;10.182;2022-08-25T00:35:23;16.80;99.90
37478;DHT22;23334;54.316;10.182;2022-08-25T00:37:48;16.20;99.90
37478;DHT22;23334;54.316;10.182;2022-08-25T00:40:14;16.60;99.90
37478;DHT22;23334;54.316;10.182;2022-08-25T00:42:40;16.50;99.90
37478;DHT22;23334;54.316;10.182;2022-08-25T00:45:07;16.30;99.90
37478;DHT22;23334;54.316;10.182;2022-08-25T00:47:34;16.70;99.90
37478;DHT22;23334;54.316;10.182;2022-08-25T00:50:02;16.60;99.90
37478;DHT22;23334;54.316;10.182;2022-08-25T00:52:41;16.40;99.90
37478;DHT22;23334;54.316;10.182;2022-08-25T00:55:15;16.60;99.90
37478;DHT22;23334;54.316;10.182;2022-08-25T00:57:47;16.50;99.90
37478;DHT22;23334;54.316;10.182;2022-08-25T01:00:35;16.60;99.90
37478;DHT22;23334;54.316;10.182;2022-08-25T01:03:03;16.50;99.90
37478;DHT22;23334;54.316;10.182;2022-08-25T01:05:29;16.40;99.90
37478;DHT22;23334;54.316;10.182;2022-08-25T01:07:59;16.50;99.90
37478;DHT22;23334;54.316;10.182;2022-08-25T01:10:26;16.30;99.90
37478;DHT22;23334;54.316;10.182;2022-08-25T01:12:55;16.40;99.90
37478;DHT22;23334;54.316;10.182;2022-08-25T01:15:23;16.60;99.90
37478;DHT22;23334;54.316;10.182;2022-08-25T01:17:54;16.20;99.90
37478;DHT22;23334;54.316;10.182;2022-08-25T01:20:23;16.60;99.90
37478;DHT22;23334;54.316;10.182;2022-08-25T01:22:51;16.30;99.90
37478;DHT22;23334;54.316;10.182;2022-08-25T01:28:02;16.40;99.90
37478;DHT22;23334;54.316;10.182;2022-08-25T01:30:28;16.40;99.90
37478;DHT22;23334;54.316;10.182;2022-08-25T01:32:54;16.30;99.90
37478;DHT22;23334;54.316;10.182;2022-08-25T01:35:19;16.40;99.90
37478;DHT22;23334;54.316;10.182;2022-08-25T01:37:45;16.30;99.90
37478;DHT22;23334;54.316;10.182;2022-08-25T01:40:12;16.30;99.90
37478;DHT22;23334;54.316;10.182;2022-08-25T01:42:57;16.30;99.90
37478;DHT22;23334;54.316;10.182;2022-08-25T01:45:26;16.20;99.90
37478;DHT22;23334;54.316;10.182;2022-08-25T01:47:52;16.20;99.90
37478;DHT22;23334;54.316;10.182;2022-08-25T01:50:17;16.20;99.90
37478;DHT22;23334;54.316;10.182;2022-08-25T01:52:54;16.30;99.90
37478;DHT22;23334;54.316;10.182;2022-08-25T01:55:20;16.30;99.90
37478;DHT22;23334;54.316;10.182;2022-08-25T01:57:46;16.20;99.90
37478;DHT22;23334;54.316;10.182;2022-08-25T02:00:14;16.20;99.90
37478;DHT22;23334;54.316;10.182;2022-08-25T02:02:40;16.30;99.90
37478;DHT22;23334;54.316;10.182;2022-08-25T02:05:08;16.20;99.90
37478;DHT22;23334;54.316;10.182;2022-08-25T02:07:34;16.30;99.90
37478;DHT22;23334;54.316;10.182;2022-08-25T02:10:00;16.10;99.90
37478;DHT22;23334;54.316;10.182;2022-08-25T02:12:29;16.10;99.90
37478;DHT22;23334;54.316;10.182;2022-08-25T02:14:56;16.00;99.90
37478;DHT22;23334;54.316;10.182;2022-08-25T02:17:21;16.00;99.90
37478;DHT22;23334;54.316;10.182;2022-08-25T02:19:47;15.90;99.90
37478;DHT22;23334;54.316;10.182;2022-08-25T02:22:12;15.80;99.90
37478;DHT22;23334;54.316;10.182;2022-08-25T02:24:38;15.90;99.90
37478;DHT22;23334;54.316;10.182;2022-08-25T02:27:04;15.70;99.90
37478;DHT22;23334;54.316;10.182;2022-08-25T02:29:30;16.20;99.90
37478;DHT22;23334;54.316;10.182;2022-08-25T02:31:55;15.70;99.90
37478;DHT22;23334;54.316;10.182;2022-08-25T02:34:21;15.70;99.90
37478;DHT22;23334;54.316;10.182;2022-08-25T02:36:47;15.60;99.90
37478;DHT22;23334;54.316;10.182;2022-08-25T02:39:13;15.70;99.90
37478;DHT22;23334;54.316;10.182;2022-08-25T02:41:39;15.60;99.90
37478;DHT22;23334;54.316;10.182;2022-08-25T02:44:06;15.80;99.90
37478;DHT22;23334;54.316;10.182;2022-08-25T02:46:32;16.00;99.90
37478;DHT22;23334;54.316;10.182;2022-08-25T02:48:57;15.50;99.90
37478;DHT22;23334;54.316;10.182;2022-08-25T02:51:24;15.70;99.90
37478;DHT22;23334;54.316;10.182;2022-08-25T02:53:50;15.40;99.90
37478;DHT22;23334;54.316;10.182;2022-08-25T02:56:17;15.40;99.90
37478;DHT22;23334;54.316;10.182;2022-08-25T02:58:43;15.90;99.90
37478;DHT22;23334;54.316;10.182;2022-08-25T03:01:10;15.50;99.90
37478;DHT22;23334;54.316;10.182;2022-08-25T03:03:37;15.40;99.90
37478;DHT22;23334;54.316;10.182;2022-08-25T03:06:07;15.40;99.90
37478;DHT22;23334;54.316;10.182;2022-08-25T03:08:34;15.60;99.90
37478;DHT22;23334;54.316;10.182;2022-08-25T03:10:59;15.50;99.90
37478;DHT22;23334;54.316;10.182;2022-08-25T03:13:25;15.20;99.90
37478;DHT22;23334;54.316;10.182;2022-08-25T03:15:50;15.30;99.90
37478;DHT22;23334;54.316;10.182;2022-08-25T03:18:16;15.20;99.90
37478;DHT22;23334;54.316;10.182;2022-08-25T03:20:42;15.20;99.90
37478;DHT22;23334;54.316;10.182;2022-08-25T03:23:09;15.10;99.90
37478;DHT22;23334;54.316;10.182;2022-08-25T03:25:34;15.00;99.90
37478;DHT22;23334;54.316;10.182;2022-08-25T03:28:18;15.10;99.90
37478;DHT22;23334;54.316;10.182;2022-08-25T03:30:44;15.10;99.90
37478;DHT22;23334;54.316;10.182;2022-08-25T03:33:10;15.00;99.90
37478;DHT22;23334;54.316;10.182;2022-08-25T03:35:36;14.90;99.90
37478;DHT22;23334;54.316;10.182;2022-08-25T03:38:01;15.00;99.90
37478;DHT22;23334;54.316;10.182;2022-08-25T03:40:27;15.30;99.90
37478;DHT22;23334;54.316;10.182;2022-08-25T03:42:53;14.90;99.90
37478;DHT22;23334;54.316;10.182;2022-08-25T03:45:22;15.30;99.90
37478;DHT22;23334;54.316;10.182;2022-08-25T03:47:49;15.30;99.90
37478;DHT22;23334;54.316;10.182;2022-08-25T03:50:16;15.20;99.90
37478;DHT22;23334;54.316;10.182;2022-08-25T03:52:42;15.20;99.90
37478;DHT22;23334;54.316;10.182;2022-08-25T03:55:09;15.30;99.90
37478;DHT22;23334;54.316;10.182;2022-08-25T03:57:35;15.60;99.90
37478;DHT22;23334;54.316;10.182;2022-08-25T04:00:02;15.30;99.90
37478;DHT22;23334;54.316;10.182;2022-08-25T04:02:28;15.50;99.90
37478;DHT22;23334;54.316;10.182;2022-08-25T04:04:54;16.00;99.90
37478;DHT22;23334;54.316;10.182;2022-08-25T04:07:19;15.30;99.90
37478;DHT22;23334;54.316;10.182;2022-08-25T04:09:45;15.40;99.90
37478;DHT22;23334;54.316;10.182;2022-08-25T04:12:10;15.70;99.90
37478;DHT22;23334;54.316;10.182;2022-08-25T04:14:36;15.30;99.90
37478;DHT22;23334;54.316;10.182;2022-08-25T04:17:02;15.20;99.90
37478;DHT22;23334;54.316;10.182;2022-08-25T04:19:28;15.50;99.90
37478;DHT22;23334;54.316;10.182;2022-08-25T04:21:53;15.20;99.90
37478;DHT22;23334;54.316;10.182;2022-08-25T04:24:19;15.20;99.90
37478;DHT22;23334;54.316;10.182;2022-08-25T04:26:48;15.40;99.90
37478;DHT22;23334;54.316;10.182;2022-08-25T04:29:18;15.70;99.90
37478;DHT22;23334;54.316;10.182;2022-08-25T04:31:45;15.50;99.90
37478;DHT22;23334;54.316;10.182;2022-08-25T04:34:12;15.60;99.90
37478;DHT22;23334;54.316;10.182;2022-08-25T04:36:38;15.80;99.90
37478;DHT22;23334;54.316;10.182;2022-08-25T04:39:04;16.10;99.90
37478;DHT22;23334;54.316;10.182;2022-08-25T04:41:29;16.00;99.90
37478;DHT22;23334;54.316;10.182;2022-08-25T04:43:57;16.20;99.90
37478;DHT22;23334;54.316;10.182;2022-08-25T04:46:26;16.40;99.90
37478;DHT22;23334;54.316;10.182;2022-08-25T04:48:54;16.40;99.90
37478;DHT22;23334;54.316;10.182;2022-08-25T04:51:23;16.30;99.90
37478;DHT22;23334;54.316;10.182;2022-08-25T04:53:50;16.40;99.90
37478;DHT22;23334;54.316;10.182;2022-08-25T04:56:22;16.80;99.90
37478;DHT22;23334;54.316;10.182;2022-08-25T04:58:52;16.70;99.90
37478;DHT22;23334;54.316;10.182;2022-08-25T05:01:21;16.70;99.90
37478;DHT22;23334;54.316;10.182;2022-08-25T05:03:56;16.10;99.90
37478;DHT22;23334;54.316;10.182;2022-08-25T05:06:24;17.40;99.90
37478;DHT22;23334;54.316;10.182;2022-08-25T05:08:50;17.50;99.90
37478;DHT22;23334;54.316;10.182;2022-08-25T05:11:16;17.50;99.90
37478;DHT22;23334;54.316;10.182;2022-08-25T05:13:49;17.50;99.90
37478;DHT22;23334;54.316;10.182;2022-08-25T05:16:15;17.80;99.90
37478;DHT22;23334;54.316;10.182;2022-08-25T05:18:41;17.40;99.90
37478;DHT22;23334;54.316;10.182;2022-08-25T05:21:14;18.10;99.90
37478;DHT22;23334;54.316;10.182;2022-08-25T05:23:40;17.80;99.90
37478;DHT22;23334;54.316;10.182;2022-08-25T05:26:08;18.00;99.90
37478;DHT22;23334;54.316;10.182;2022-08-25T05:28:35;17.90;99.90
37478;DHT22;23334;54.316;10.182;2022-08-25T05:31:02;18.00;99.90
37478;DHT22;23334;54.316;10.182;2022-08-25T05:33:29;17.90;99.90
37478;DHT22;23334;54.316;10.182;2022-08-25T05:35:54;18.30;99.90
37478;DHT22;23334;54.316;10.182;2022-08-25T05:38:21;18.30;99.90
37478;DHT22;23334;54.316;10.182;2022-08-25T05:40:47;18.30;99.90
37478;DHT22;23334;54.316;10.182;2022-08-25T05:43:12;18.50;99.90
37478;DHT22;23334;54.316;10.182;2022-08-25T05:45:40;18.40;99.90
37478;DHT22;23334;54.316;10.182;2022-08-25T05:48:06;18.50;99.90
37478;DHT22;23334;54.316;10.182;2022-08-25T05:50:33;18.60;99.90
37478;DHT22;23334;54.316;10.182;2022-08-25T05:52:58;18.60;99.90
37478;DHT22;23334;54.316;10.182;2022-08-25T05:55:24;18.70;99.90
37478;DHT22;23334;54.316;10.182;2022-08-25T05:57:49;18.80;99.90
37478;DHT22;23334;54.316;10.182;2022-08-25T06:00:15;19.00;99.90
37478;DHT22;23334;54.316;10.182;2022-08-25T06:02:42;19.10;99.90
37478;DHT22;23334;54.316;10.182;2022-08-25T06:05:10;19.30;99.90
37478;DHT22;23334;54.316;10.182;2022-08-25T06:07:37;19.00;99.90
37478;DHT22;23334;54.316;10.182;2022-08-25T06:10:05;19.50;99.90
37478;DHT22;23334;54.316;10.182;2022-08-25T06:12:33;19.80;99.90
37478;DHT22;23334;54.316;10.182;2022-08-25T06:15:01;19.90;99.90
37478;DHT22;23334;54.316;10.182;2022-08-25T06:17:27;20.50;99.90
37478;DHT22;23334;54.316;10.182;2022-08-25T06:19:52;20.90;99.90
37478;DHT22;23334;54.316;10.182;2022-08-25T06:22:19;21.60;99.90
37478;DHT22;23334;54.316;10.182;2022-08-25T06:24:45;22.20;99.90
37478;DHT22;23334;54.316;10.182;2022-08-25T06:27:11;23.00;99.90
37478;DHT22;23334;54.316;10.182;2022-08-25T06:29:36;23.40;99.90
37478;DHT22;23334;54.316;10.182;2022-08-25T06:32:02;23.60;99.90
37478;DHT22;23334;54.316;10.182;2022-08-25T06:34:27;24.30;99.90
37478;DHT22;23334;54.316;10.182;2022-08-25T06:36:53;24.00;99.90
37478;DHT22;23334;54.316;10.182;2022-08-25T06:39:19;24.60;99.90
37478;DHT22;23334;54.316;10.182;2022-08-25T06:41:45;24.60;99.90
37478;DHT22;23334;54.316;10.182;2022-08-25T06:44:14;24.70;99.90
37478;DHT22;23334;54.316;10.182;2022-08-25T06:46:40;25.30;99.90
37478;DHT22;23334;54.316;10.182;2022-08-25T06:49:06;25.40;99.90
37478;DHT22;23334;54.316;10.182;2022-08-25T06:51:32;26.00;99.90
37478;DHT22;23334;54.316;10.182;2022-08-25T06:54:00;26.50;99.90
37478;DHT22;23334;54.316;10.182;2022-08-25T06:56:25;27.90;99.90
37478;DHT22;23334;54.316;10.182;2022-08-25T06:58:51;27.80;99.90
37478;DHT22;23334;54.316;10.182;2022-08-25T07:01:19;28.10;99.90
37478;DHT22;23334;54.316;10.182;2022-08-25T07:03:48;27.80;99.90
37478;DHT22;23334;54.316;10.182;2022-08-25T07:06:15;28.60;99.90
37478;DHT22;23334;54.316;10.182;2022-08-25T07:08:42;28.50;99.90
37478;DHT22;23334;54.316;10.182;2022-08-25T07:11:09;27.60;99.90
37478;DHT22;23334;54.316;10.182;2022-08-25T07:13:36;26.60;99.90
37478;DHT22;23334;54.316;10.182;2022-08-25T07:16:06;25.80;99.90
37478;DHT22;23334;54.316;10.182;2022-08-25T07:18:35;25.50;99.90
37478;DHT22;23334;54.316;10.182;2022-08-25T07:21:01;25.40;99.90
37478;DHT22;23334;54.316;10.182;2022-08-25T07:23:27;25.30;99.90
37478;DHT22;23334;54.316;10.182;2022-08-25T07:25:53;24.50;99.90
37478;DHT22;23334;54.316;10.182;2022-08-25T07:28:21;24.50;99.90
37478;DHT22;23334;54.316;10.182;2022-08-25T07:30:48;24.10;99.90
37478;DHT22;23334;54.316;10.182;2022-08-25T07:33:15;24.00;99.90
37478;DHT22;23334;54.316;10.182;2022-08-25T07:35:40;24.00;99.90
37478;DHT22;23334;54.316;10.182;2022-08-25T07:38:07;24.20;99.90
37478;DHT22;23334;54.316;10.182;2022-08-25T07:40:35;24.10;99.90
37478;DHT22;23334;54.316;10.182;2022-08-25T07:43:06;23.90;99.90
37478;DHT22;23334;54.316;10.182;2022-08-25T07:45:37;24.00;99.90
37478;DHT22;23334;54.316;10.182;2022-08-25T07:48:08;23.80;99.90
37478;DHT22;23334;54.316;10.182;2022-08-25T07:50:36;23.70;99.90
37478;DHT22;23334;54.316;10.182;2022-08-25T07:53:04;23.60;99.90
37478;DHT22;23334;54.316;10.182;2022-08-25T07:55:30;23.50;99.90
37478;DHT22;23334;54.316;10.182;2022-08-25T07:57:56;23.70;99.90
37478;DHT22;23334;54.316;10.182;2022-08-25T08:00:24;23.60;99.90
37478;DHT22;23334;54.316;10.182;2022-08-25T08:02:52;24.00;99.90
37478;DHT22;23334;54.316;10.182;2022-08-25T08:05:18;26.30;99.90
37478;DHT22;23334;54.316;10.182;2022-08-25T08:07:43;27.00;99.90
37478;DHT22;23334;54.316;10.182;2022-08-25T08:10:12;27.40;99.90
37478;DHT22;23334;54.316;10.182;2022-08-25T08:12:38;28.40;99.90
37478;DHT22;23334;54.316;10.182;2022-08-25T08:15:04;28.60;99.90
37478;DHT22;23334;54.316;10.182;2022-08-25T08:17:30;29.40;99.90
37478;DHT22;23334;54.316;10.182;2022-08-25T08:19:56;29.00;99.90
37478;DHT22;23334;54.316;10.182;2022-08-25T08:22:22;27.90;99.90
37478;DHT22;23334;54.316;10.182;2022-08-25T08:24:47;27.00;99.90
37478;DHT22;23334;54.316;10.182;2022-08-25T08:27:13;26.40;99.90
37478;DHT22;23334;54.316;10.182;2022-08-25T08:29:40;26.10;99.90
37478;DHT22;23334;54.316;10.182;2022-08-25T08:32:10;26.30;99.90
37478;DHT22;23334;54.316;10.182;2022-08-25T08:34:38;27.00;99.90
37478;DHT22;23334;54.316;10.182;2022-08-25T08:37:05;28.40;99.90
37478;DHT22;23334;54.316;10.182;2022-08-25T08:39:32;30.00;99.90
37478;DHT22;23334;54.316;10.182;2022-08-25T08:45:28;30.10;99.90
37478;DHT22;23334;54.316;10.182;2022-08-25T08:53:53;30.50;99.90
37478;DHT22;23334;54.316;10.182;2022-08-25T08:56:27;28.80;99.90
37478;DHT22;23334;54.316;10.182;2022-08-25T08:59:04;29.40;99.90
37478;DHT22;23334;54.316;10.182;2022-08-25T09:01:33;33.20;99.90
37478;DHT22;23334;54.316;10.182;2022-08-25T09:04:07;33.20;99.90
37478;DHT22;23334;54.316;10.182;2022-08-25T09:06:41;33.00;99.90
37478;DHT22;23334;54.316;10.182;2022-08-25T09:09:08;32.00;99.90
37478;DHT22;23334;54.316;10.182;2022-08-25T09:12:08;31.70;99.90
37478;DHT22;23334;54.316;10.182;2022-08-25T09:14:59;30.90;99.90
37478;DHT22;23334;54.316;10.182;2022-08-25T09:17:42;30.10;99.90
37478;DHT22;23334;54.316;10.182;2022-08-25T09:28:48;31.00;99.90
37478;DHT22;23334;54.316;10.182;2022-08-25T09:31:23;33.20;99.90
37478;DHT22;23334;54.316;10.182;2022-08-25T09:33:54;33.70;99.90
37478;DHT22;23334;54.316;10.182;2022-08-25T09:36:21;35.20;97.10
37478;DHT22;23334;54.316;10.182;2022-08-25T09:38:47;35.20;97.30
37478;DHT22;23334;54.316;10.182;2022-08-25T09:41:16;34.80;96.40
37478;DHT22;23334;54.316;10.182;2022-08-25T09:43:44;33.00;96.50
37478;DHT22;23334;54.316;10.182;2022-08-25T09:46:24;33.20;97.40
37478;DHT22;23334;54.316;10.182;2022-08-25T09:48:54;32.70;98.10
37478;DHT22;23334;54.316;10.182;2022-08-25T09:51:32;31.40;99.50
37478;DHT22;23334;54.316;10.182;2022-08-25T09:54:17;30.20;99.90
37478;DHT22;23334;54.316;10.182;2022-08-25T09:56:54;29.40;99.90
37478;DHT22;23334;54.316;10.182;2022-08-25T10:01:50;29.60;99.90
37478;DHT22;23334;54.316;10.182;2022-08-25T10:04:28;30.50;99.90
37478;DHT22;23334;54.316;10.182;2022-08-25T10:06:56;29.60;99.90
37478;DHT22;23334;54.316;10.182;2022-08-25T10:09:44;29.10;99.90
37478;DHT22;23334;54.316;10.182;2022-08-25T10:12:19;28.20;99.90
37478;DHT22;23334;54.316;10.182;2022-08-25T10:14:46;28.00;99.90
37478;DHT22;23334;54.316;10.182;2022-08-25T10:17:27;27.50;99.90
37478;DHT22;23334;54.316;10.182;2022-08-25T10:20:17;27.20;99.90
37478;DHT22;23334;54.316;10.182;2022-08-25T10:22:45;26.80;99.90
37478;DHT22;23334;54.316;10.182;2022-08-25T10:25:13;26.60;99.90
37478;DHT22;23334;54.316;10.182;2022-08-25T10:28:19;26.30;99.90
37478;DHT22;23334;54.316;10.182;2022-08-25T10:31:08;26.40;99.90
37478;DHT22;23334;54.316;10.182;2022-08-25T10:36:52;26.20;99.90
37478;DHT22;23334;54.316;10.182;2022-08-25T10:39:37;27.10;99.90
37478;DHT22;23334;54.316;10.182;2022-08-25T10:42:31;27.40;99.90
37478;DHT22;23334;54.316;10.182;2022-08-25T10:45:21;27.30;99.90
37478;DHT22;23334;54.316;10.182;2022-08-25T10:53:55;26.70;99.90
37478;DHT22;23334;54.316;10.182;2022-08-25T10:56:30;26.70;99.90
37478;DHT22;23334;54.316;10.182;2022-08-25T11:04:40;26.60;99.90
37478;DHT22;23334;54.316;10.182;2022-08-25T11:10:06;27.40;99.90
37478;DHT22;23334;54.316;10.182;2022-08-25T11:12:51;27.30;99.90
37478;DHT22;23334;54.316;10.182;2022-08-25T11:15:50;27.10;99.90
37478;DHT22;23334;54.316;10.182;2022-08-25T11:18:14;26.70;99.90
37478;DHT22;23334;54.316;10.182;2022-08-25T11:23:18;26.80;99.90
37478;DHT22;23334;54.316;10.182;2022-08-25T11:25:50;27.00;99.90
37478;DHT22;23334;54.316;10.182;2022-08-25T11:28:42;26.90;99.90
37478;DHT22;23334;54.316;10.182;2022-08-25T11:31:13;27.00;99.90
37478;DHT22;23334;54.316;10.182;2022-08-25T11:33:39;26.30;99.90
37478;DHT22;23334;54.316;10.182;2022-08-25T11:36:16;26.70;99.90
37478;DHT22;23334;54.316;10.182;2022-08-25T11:39:13;26.60;99.90
37478;DHT22;23334;54.316;10.182;2022-08-25T11:55:17;26.60;99.90
37478;DHT22;23334;54.316;10.182;2022-08-25T11:57:46;26.90;99.90
37478;DHT22;23334;54.316;10.182;2022-08-25T12:03:00;27.30;99.90
37478;DHT22;23334;54.316;10.182;2022-08-25T12:06:12;27.30;99.90
37478;DHT22;23334;54.316;10.182;2022-08-25T12:27:22;27.20;99.90
37478;DHT22;23334;54.316;10.182;2022-08-25T12:29:54;27.20;99.90
37478;DHT22;23334;54.316;10.182;2022-08-25T12:35:29;26.70;99.90
37478;DHT22;23334;54.316;10.182;2022-08-25T12:38:08;26.60;99.90
37478;DHT22;23334;54.316;10.182;2022-08-25T12:40:53;26.80;99.90
37478;DHT22;23334;54.316;10.182;2022-08-25T12:43:32;26.90;99.90
37478;DHT22;23334;54.316;10.182;2022-08-25T12:49:30;26.90;99.90
37478;DHT22;23334;54.316;10.182;2022-08-25T12:52:09;26.80;99.90
37478;DHT22;23334;54.316;10.182;2022-08-25T12:57:28;26.90;99.90
37478;DHT22;23334;54.316;10.182;2022-08-25T12:59:58;26.70;99.90
37478;DHT22;23334;54.316;10.182;2022-08-25T13:05:28;26.50;99.90
37478;DHT22;23334;54.316;10.182;2022-08-25T13:08:17;26.60;99.90
37478;DHT22;23334;54.316;10.182;2022-08-25T13:10:51;26.60;99.90
37478;DHT22;23334;54.316;10.182;2022-08-25T13:16:05;26.70;99.90
37478;DHT22;23334;54.316;10.182;2022-08-25T13:18:35;26.60;99.90
37478;DHT22;23334;54.316;10.182;2022-08-25T13:21:16;26.60;99.90
37478;DHT22;23334;54.316;10.182;2022-08-25T13:23:45;26.60;99.90
37478;DHT22;23334;54.316;10.182;2022-08-25T13:26:30;27.00;99.90
37478;DHT22;23334;54.316;10.182;2022-08-25T13:29:00;26.90;99.90
37478;DHT22;23334;54.316;10.182;2022-08-25T13:31:28;27.00;99.90
37478;DHT22;23334;54.316;10.182;2022-08-25T13:34:07;26.90;99.90
37478;DHT22;23334;54.316;10.182;2022-08-25T13:36:42;26.70;99.90
37478;DHT22;23334;54.316;10.182;2022-08-25T13:39:28;26.80;99.90
37478;DHT22;23334;54.316;10.182;2022-08-25T13:41:56;26.80;99.90
37478;DHT22;23334;54.316;10.182;2022-08-25T13:44:24;26.80;99.90
37478;DHT22;23334;54.316;10.182;2022-08-25T13:47:15;26.60;99.90
37478;DHT22;23334;54.316;10.182;2022-08-25T13:49:46;26.70;99.90
37478;DHT22;23334;54.316;10.182;2022-08-25T13:52:28;26.70;99.90
37478;DHT22;23334;54.316;10.182;2022-08-25T13:54:58;26.70;99.90
37478;DHT22;23334;54.316;10.182;2022-08-25T13:57:28;26.70;99.90
37478;DHT22;23334;54.316;10.182;2022-08-25T14:00:03;26.60;99.90
37478;DHT22;23334;54.316;10.182;2022-08-25T14:02:48;26.60;99.90
37478;DHT22;23334;54.316;10.182;2022-08-25T14:05:15;26.60;99.90
37478;DHT22;23334;54.316;10.182;2022-08-25T14:07:52;26.60;99.90
37478;DHT22;23334;54.316;10.182;2022-08-25T14:10:35;26.40;99.90
37478;DHT22;23334;54.316;10.182;2022-08-25T14:13:28;26.00;99.90
37478;DHT22;23334;54.316;10.182;2022-08-25T14:15:53;26.70;99.90
37478;DHT22;23334;54.316;10.182;2022-08-25T14:18:30;26.60;99.90
37478;DHT22;23334;54.316;10.182;2022-08-25T14:20:57;26.50;99.90
37478;DHT22;23334;54.316;10.182;2022-08-25T14:23:24;26.30;99.90
37478;DHT22;23334;54.316;10.182;2022-08-25T14:25:53;26.20;99.90
37478;DHT22;23334;54.316;10.182;2022-08-25T14:28:25;26.10;99.90
37478;DHT22;23334;54.316;10.182;2022-08-25T14:31:07;26.10;99.90
37478;DHT22;23334;54.316;10.182;2022-08-25T14:33:39;26.00;99.90
37478;DHT22;23334;54.316;10.182;2022-08-25T14:36:21;25.80;99.90
37478;DHT22;23334;54.316;10.182;2022-08-25T14:38:47;25.80;99.90
37478;DHT22;23334;54.316;10.182;2022-08-25T14:41:13;25.70;99.90
37478;DHT22;23334;54.316;10.182;2022-08-25T14:43:39;25.70;99.90
37478;DHT22;23334;54.316;10.182;2022-08-25T14:46:19;25.90;99.90
37478;DHT22;23334;54.316;10.182;2022-08-25T14:48:50;25.90;99.90
37478;DHT22;23334;54.316;10.182;2022-08-25T14:51:19;25.80;99.90
37478;DHT22;23334;54.316;10.182;2022-08-25T14:53:44;25.80;99.90
37478;DHT22;23334;54.316;10.182;2022-08-25T14:56:10;25.60;99.90
37478;DHT22;23334;54.316;10.182;2022-08-25T14:58:36;25.60;99.90
37478;DHT22;23334;54.316;10.182;2022-08-25T15:01:03;25.50;99.90
37478;DHT22;23334;54.316;10.182;2022-08-25T15:03:37;25.40;99.90
37478;DHT22;23334;54.316;10.182;2022-08-25T15:06:04;24.90;99.90
37478;DHT22;23334;54.316;10.182;2022-08-25T15:08:30;25.20;99.90
37478;DHT22;23334;54.316;10.182;2022-08-25T15:11:14;25.20;99.90
37478;DHT22;23334;54.316;10.182;2022-08-25T15:13:40;25.20;99.90
37478;DHT22;23334;54.316;10.182;2022-08-25T15:16:06;25.30;99.90
37478;DHT22;23334;54.316;10.182;2022-08-25T15:18:33;25.40;99.90
37478;DHT22;23334;54.316;10.182;2022-08-25T15:20:58;25.50;99.90
37478;DHT22;23334;54.316;10.182;2022-08-25T15:23:24;25.50;99.90
37478;DHT22;23334;54.316;10.182;2022-08-25T15:25:50;25.40;99.90
37478;DHT22;23334;54.316;10.182;2022-08-25T15:28:18;25.30;99.90
37478;DHT22;23334;54.316;10.182;2022-08-25T15:30:44;25.20;99.90
37478;DHT22;23334;54.316;10.182;2022-08-25T15:33:09;25.20;99.90
37478;DHT22;23334;54.316;10.182;2022-08-25T15:35:35;25.20;99.90
37478;DHT22;23334;54.316;10.182;2022-08-25T15:38:01;25.10;99.90
37478;DHT22;23334;54.316;10.182;2022-08-25T15:40:27;25.00;99.90
37478;DHT22;23334;54.316;10.182;2022-08-25T15:42:53;25.00;99.90
37478;DHT22;23334;54.316;10.182;2022-08-25T15:45:18;24.90;99.90
37478;DHT22;23334;54.316;10.182;2022-08-25T15:47:44;24.90;99.90
37478;DHT22;23334;54.316;10.182;2022-08-25T15:50:13;24.90;99.90
37478;DHT22;23334;54.316;10.182;2022-08-25T15:52:39;24.90;99.90
37478;DHT22;23334;54.316;10.182;2022-08-25T15:55:05;24.90;99.90
37478;DHT22;23334;54.316;10.182;2022-08-25T15:57:31;25.00;99.90
37478;DHT22;23334;54.316;10.182;2022-08-25T15:59:57;24.90;99.90
37478;DHT22;23334;54.316;10.182;2022-08-25T16:02:22;24.90;99.90
37478;DHT22;23334;54.316;10.182;2022-08-25T16:04:48;24.80;99.90
37478;DHT22;23334;54.316;10.182;2022-08-25T16:07:15;24.80;99.90
37478;DHT22;23334;54.316;10.182;2022-08-25T16:09:41;24.50;99.90
37478;DHT22;23334;54.316;10.182;2022-08-25T16:12:06;24.60;99.90
37478;DHT22;23334;54.316;10.182;2022-08-25T16:14:32;24.60;99.90
37478;DHT22;23334;54.316;10.182;2022-08-25T16:16:57;24.60;99.90
37478;DHT22;23334;54.316;10.182;2022-08-25T16:19:24;24.60;99.90
37478;DHT22;23334;54.316;10.182;2022-08-25T16:21:50;24.60;99.90
37478;DHT22;23334;54.316;10.182;2022-08-25T16:24:15;24.50;99.90
37478;DHT22;23334;54.316;10.182;2022-08-25T16:26:41;24.40;99.90
37478;DHT22;23334;54.316;10.182;2022-08-25T16:29:11;25.20;99.90
37478;DHT22;23334;54.316;10.182;2022-08-25T16:31:38;24.40;99.90
37478;DHT22;23334;54.316;10.182;2022-08-25T16:34:04;24.40;99.90
37478;DHT22;23334;54.316;10.182;2022-08-25T16:36:30;24.30;99.90
37478;DHT22;23334;54.316;10.182;2022-08-25T16:38:55;24.30;99.90
37478;DHT22;23334;54.316;10.182;2022-08-25T16:41:25;24.30;99.90
37478;DHT22;23334;54.316;10.182;2022-08-25T16:43:52;24.20;99.90
37478;DHT22;23334;54.316;10.182;2022-08-25T16:49:03;24.10;99.90
37478;DHT22;23334;54.316;10.182;2022-08-25T16:51:29;24.00;99.90
37478;DHT22;23334;54.316;10.182;2022-08-25T16:53:56;23.60;99.90
37478;DHT22;23334;54.316;10.182;2022-08-25T16:56:42;23.70;99.90
37478;DHT22;23334;54.316;10.182;2022-08-25T16:59:09;23.90;99.90
37478;DHT22;23334;54.316;10.182;2022-08-25T17:01:36;23.90;99.90
37478;DHT22;23334;54.316;10.182;2022-08-25T17:04:03;23.80;99.90
37478;DHT22;23334;54.316;10.182;2022-08-25T17:06:33;23.60;99.90